createdAt,value
2019-05-03T00:01:32.426Z,11.60
2019-05-03T00:03:39.076Z,11.60
2019-05-03T00:05:46.580Z,11.60
2019-05-03T00:07:53.126Z,11.40
2019-05-03T00:09:58.869Z,11.30
2019-05-03T00:12:06.104Z,11.30
2019-05-03T00:14:12.474Z,11.40
2019-05-03T00:16:25.536Z,11.20
2019-05-03T00:18:32.814Z,11.10
2019-05-03T00:20:38.504Z,11.20
2019-05-03T00:22:44.015Z,11.20
2019-05-03T00:25:02.303Z,11.20
2019-05-03T00:26:56.762Z,11.10
2019-05-03T00:29:02.278Z,11.10
2019-05-03T00:31:07.869Z,11.00
2019-05-03T00:33:13.491Z,10.90
2019-05-03T00:35:37.263Z,10.90
2019-05-03T00:37:47.422Z,10.90
2019-05-03T00:40:05.823Z,10.90
2019-05-03T00:42:11.967Z,10.80
2019-05-03T00:44:17.603Z,10.70
2019-05-03T00:46:23.296Z,10.60
2019-05-03T00:48:28.872Z,10.60
2019-05-03T00:50:34.403Z,10.50
2019-05-03T00:52:39.932Z,10.60
2019-05-03T00:54:45.453Z,10.60
2019-05-03T00:56:52.236Z,10.70
2019-05-03T00:58:58.976Z,10.70
2019-05-03T01:01:04.940Z,10.60
2019-05-03T01:03:12.408Z,10.60
2019-05-03T01:05:17.680Z,10.60
2019-05-03T01:07:23.209Z,10.60
2019-05-03T01:09:28.869Z,10.60
2019-05-03T01:11:34.421Z,10.70
2019-05-03T01:13:39.943Z,10.60
2019-05-03T01:15:47.166Z,10.60
2019-05-03T01:17:52.699Z,10.60
2019-05-03T01:19:58.227Z,10.50
2019-05-03T01:22:03.902Z,10.50
2019-05-03T01:24:09.511Z,10.60
2019-05-03T01:26:15.156Z,10.60
2019-05-03T01:28:21.580Z,10.70
2019-05-03T01:30:27.270Z,10.80
2019-05-03T01:32:33.065Z,10.90
2019-05-03T01:34:38.616Z,10.90
2019-05-03T01:36:45.292Z,11.00
2019-05-03T01:38:52.641Z,11.10
2019-05-03T01:40:57.943Z,11.00
2019-05-03T01:43:03.508Z,10.90
2019-05-03T01:45:09.159Z,10.90
2019-05-03T01:47:16.394Z,11.00
2019-05-03T01:49:23.556Z,11.10
2019-05-03T01:51:39.712Z,11.20
2019-05-03T01:53:45.497Z,11.30
2019-05-03T01:55:52.301Z,11.20
2019-05-03T01:57:58.273Z,11.20
2019-05-03T02:00:07.777Z,11.10
2019-05-03T02:02:15.089Z,10.90
2019-05-03T02:04:28.232Z,10.80
2019-05-03T02:06:33.739Z,10.60
2019-05-03T02:08:39.310Z,10.50
2019-05-03T02:10:44.935Z,10.50
2019-05-03T02:12:52.143Z,10.40
2019-05-03T02:14:57.784Z,10.30
2019-05-03T02:17:03.321Z,10.20
2019-05-03T02:19:08.921Z,10.10
2019-05-03T02:21:14.517Z,10.00
2019-05-03T02:23:20.042Z,10.00
2019-05-03T02:25:25.552Z,10.00
2019-05-03T02:27:32.580Z,10.00
2019-05-03T02:29:38.218Z,9.90
2019-05-03T02:31:43.907Z,9.80
2019-05-03T02:33:49.431Z,9.80
2019-05-03T02:35:55.009Z,9.80
2019-05-03T02:38:03.360Z,9.90
2019-05-03T02:40:08.113Z,9.80
2019-05-03T02:42:16.076Z,9.60
2019-05-03T02:44:22.039Z,9.70
2019-05-03T02:46:31.949Z,9.90
2019-05-03T02:48:39.244Z,9.80
2019-05-03T02:50:45.227Z,9.70
2019-05-03T02:52:50.991Z,9.50
2019-05-03T02:54:56.523Z,9.50
2019-05-03T02:57:02.037Z,9.60
2019-05-03T02:59:07.702Z,9.60
2019-05-03T03:01:15.671Z,9.60
2019-05-03T03:03:20.629Z,9.70
2019-05-03T03:05:26.325Z,9.60
2019-05-03T03:07:32.677Z,9.60
2019-05-03T03:09:38.538Z,9.60
2019-05-03T03:11:46.714Z,9.60
2019-05-03T03:13:55.284Z,9.60
2019-05-03T03:16:06.610Z,9.60
2019-05-03T03:18:12.134Z,9.60
2019-05-03T03:20:17.781Z,9.60
2019-05-03T03:22:25.938Z,9.60
2019-05-03T03:24:36.157Z,9.50
2019-05-03T03:26:43.109Z,9.60
2019-05-03T03:28:51.809Z,9.70
2019-05-03T03:31:09.153Z,9.80
2019-05-03T03:33:17.487Z,9.80
2019-05-03T03:35:29.721Z,9.80
2019-05-03T03:37:32.222Z,9.90
2019-05-03T03:39:39.969Z,10.00
2019-05-03T03:41:47.051Z,10.00
2019-05-03T03:43:55.800Z,9.90
2019-05-03T03:46:05.259Z,9.80
2019-05-03T03:48:10.933Z,9.80
2019-05-03T03:50:16.586Z,9.80
2019-05-03T03:52:22.239Z,9.80
2019-05-03T03:54:30.852Z,9.90
2019-05-03T03:56:54.731Z,9.90
2019-05-03T03:58:46.392Z,9.90
2019-05-03T04:00:52.184Z,10.10
2019-05-03T04:02:58.154Z,10.20
2019-05-03T04:05:05.629Z,10.30
2019-05-03T04:07:11.377Z,10.30
2019-05-03T04:09:16.960Z,10.40
2019-05-03T04:11:22.645Z,10.30
2019-05-03T04:13:29.340Z,10.20
2019-05-03T04:15:37.549Z,10.20
2019-05-03T04:18:00.014Z,10.20
2019-05-03T04:20:07.652Z,10.20
2019-05-03T04:22:16.451Z,10.20
2019-05-03T04:24:22.476Z,10.30
2019-05-03T04:26:29.908Z,10.50
2019-05-03T04:28:36.998Z,10.70
2019-05-03T04:30:42.523Z,10.90
2019-05-03T04:32:48.146Z,11.10
2019-05-03T04:34:55.979Z,11.20
2019-05-03T04:37:00.996Z,11.20
2019-05-03T04:39:07.603Z,11.00
2019-05-03T04:41:15.664Z,10.90
2019-05-03T04:43:20.329Z,10.80
2019-05-03T04:45:25.962Z,10.90
2019-05-03T04:47:31.517Z,10.90
2019-05-03T04:49:37.050Z,10.90
2019-05-03T04:51:42.585Z,10.90
2019-05-03T04:53:49.743Z,11.10
2019-05-03T04:55:55.956Z,11.20
2019-05-03T04:58:01.610Z,11.40
2019-05-03T05:00:11.847Z,11.50
2019-05-03T05:02:17.456Z,11.60
2019-05-03T05:04:25.236Z,11.70
2019-05-03T05:06:30.149Z,11.70
2019-05-03T05:08:36.374Z,11.80
2019-05-03T05:10:41.926Z,11.90
2019-05-03T05:12:47.448Z,12.00
2019-05-03T05:14:53.038Z,12.40
2019-05-03T05:16:58.657Z,12.60
2019-05-03T05:19:05.990Z,12.70
2019-05-03T05:21:14.978Z,12.70
2019-05-03T05:23:20.578Z,12.70
2019-05-03T05:25:39.532Z,12.70
2019-05-03T05:28:04.859Z,12.80
2019-05-03T05:30:12.549Z,12.90
2019-05-03T05:32:18.202Z,12.90
2019-05-03T05:34:24.573Z,12.90
2019-05-03T05:36:30.271Z,12.80
2019-05-03T05:38:35.796Z,12.70
2019-05-03T05:40:41.308Z,12.80
2019-05-03T05:42:46.844Z,12.70
2019-05-03T05:44:52.436Z,12.60
2019-05-03T05:47:04.585Z,12.50
2019-05-03T05:49:11.516Z,12.40
2019-05-03T05:51:17.052Z,12.30
2019-05-03T05:53:22.572Z,12.20
2019-05-03T05:55:46.997Z,12.30
2019-05-03T05:58:02.915Z,12.20
2019-05-03T06:00:12.015Z,12.30
2019-05-03T06:02:18.120Z,12.30
2019-05-03T06:04:24.571Z,12.40
2019-05-03T06:06:50.172Z,12.50
2019-05-03T06:09:15.481Z,12.60
2019-05-03T06:11:28.640Z,12.80
2019-05-03T06:13:41.474Z,12.90
2019-05-03T06:16:05.191Z,13.00
2019-05-03T06:18:18.628Z,13.10
2019-05-03T06:20:25.778Z,13.10
2019-05-03T06:22:34.572Z,13.10
2019-05-03T06:24:41.818Z,13.00
2019-05-03T06:26:48.967Z,13.00
2019-05-03T06:28:54.597Z,13.00
2019-05-03T06:31:14.924Z,12.90
2019-05-03T06:33:20.671Z,13.10
2019-05-03T06:35:26.224Z,13.20
2019-05-03T06:40:07.474Z,13.10
2019-05-03T06:42:16.842Z,13.10
2019-05-03T06:44:24.860Z,13.10
2019-05-03T06:46:45.831Z,13.10
2019-05-03T06:48:54.229Z,13.30
2019-05-03T06:51:00.300Z,13.40
2019-05-03T06:53:12.662Z,13.20
2019-05-03T06:55:14.601Z,13.20
2019-05-03T06:57:20.567Z,13.20
2019-05-03T06:59:27.791Z,13.20
2019-05-03T07:01:35.051Z,13.20
2019-05-03T07:03:57.341Z,13.30
2019-05-03T07:06:33.273Z,13.30
2019-05-03T07:08:47.287Z,13.10
2019-05-03T07:10:55.002Z,13.10
2019-05-03T07:13:05.129Z,13.20
2019-05-03T07:15:11.075Z,13.20
2019-05-03T07:17:16.597Z,13.30
2019-05-03T07:19:22.123Z,13.40
2019-05-03T07:21:27.677Z,13.40
2019-05-03T07:23:35.010Z,13.30
2019-05-03T07:25:40.412Z,13.20
2019-05-03T07:27:46.007Z,13.20
2019-05-03T07:29:51.523Z,13.20
2019-05-03T07:31:57.120Z,13.20
2019-05-03T07:34:02.721Z,13.10
2019-05-03T07:36:09.325Z,13.30
2019-05-03T07:38:15.546Z,13.50
2019-05-03T07:40:21.084Z,13.60
2019-05-03T07:42:26.604Z,13.60
2019-05-03T07:44:32.124Z,13.90
2019-05-03T07:46:37.654Z,14.00
2019-05-03T07:48:43.190Z,14.20
2019-05-03T07:50:49.786Z,14.20
2019-05-03T07:52:55.830Z,14.00
2019-05-03T07:55:01.509Z,14.20
2019-05-03T07:57:25.449Z,14.30
2019-05-03T07:59:31.273Z,14.30
2019-05-03T08:01:38.588Z,14.50
2019-05-03T08:03:45.108Z,14.60
2019-05-03T08:05:50.840Z,14.50
2019-05-03T08:07:57.428Z,14.80
2019-05-03T08:10:05.402Z,15.20
2019-05-03T08:12:10.848Z,14.90
2019-05-03T08:14:18.292Z,14.90
2019-05-03T08:16:25.150Z,15.20
2019-05-03T08:18:30.913Z,15.40
2019-05-03T08:20:36.455Z,15.30
2019-05-03T08:22:41.973Z,15.90
2019-05-03T08:24:47.546Z,16.30
2019-05-03T08:26:53.078Z,16.60
2019-05-03T08:28:58.595Z,16.80
2019-05-03T08:31:15.578Z,16.80
2019-05-03T08:33:24.876Z,17.10
2019-05-03T08:35:31.527Z,17.30
2019-05-03T08:37:38.812Z,17.10
2019-05-03T08:39:44.729Z,17.40
2019-05-03T08:42:01.123Z,17.60
2019-05-03T08:44:06.794Z,17.90
2019-05-03T08:46:12.321Z,18.20
2019-05-03T08:48:17.867Z,18.30
2019-05-03T08:50:25.507Z,18.60
2019-05-03T08:52:30.582Z,18.40
2019-05-03T08:54:36.234Z,18.00
2019-05-03T08:56:41.786Z,17.90
2019-05-03T08:58:47.314Z,18.00
2019-05-03T09:00:54.523Z,18.10
2019-05-03T09:03:00.156Z,17.70
2019-05-03T09:05:07.548Z,17.50
2019-05-03T09:07:14.785Z,17.30
2019-05-03T09:09:21.938Z,17.30
2019-05-03T09:11:33.549Z,17.40
2019-05-03T09:13:36.267Z,17.70
2019-05-03T09:15:44.543Z,17.90
2019-05-03T09:17:51.401Z,17.90
2019-05-03T09:19:56.956Z,17.80
2019-05-03T09:22:02.643Z,17.80
2019-05-03T09:24:08.440Z,17.80
2019-05-03T09:26:15.160Z,16.70
2019-05-03T09:28:20.908Z,16.10
2019-05-03T09:30:27.336Z,15.60
2019-05-03T09:32:34.922Z,15.10
2019-05-03T09:34:41.024Z,14.90
2019-05-03T09:36:46.540Z,14.80
2019-05-03T09:38:52.143Z,14.70
2019-05-03T09:40:57.676Z,14.50
2019-05-03T09:43:04.507Z,14.20
2019-05-03T09:45:10.479Z,14.30
2019-05-03T09:47:16.089Z,14.00
2019-05-03T09:49:21.622Z,13.80
2019-05-03T09:51:27.154Z,13.70
2019-05-03T09:53:35.149Z,13.60
2019-05-03T09:55:41.445Z,13.50
2019-05-03T09:57:47.039Z,13.40
2019-05-03T09:59:57.075Z,13.40
2019-05-03T10:02:00.383Z,13.10
2019-05-03T10:04:05.980Z,13.00
2019-05-03T10:06:14.295Z,12.80
2019-05-03T10:08:18.673Z,12.70
2019-05-03T10:10:24.782Z,12.50
2019-05-03T10:12:31.672Z,12.40
2019-05-03T10:14:37.234Z,12.30
2019-05-03T10:16:44.840Z,12.00
2019-05-03T10:18:50.511Z,11.90
2019-05-03T10:20:56.383Z,11.80
2019-05-03T10:23:05.183Z,11.70
2019-05-03T10:25:12.359Z,11.60
2019-05-03T10:27:17.907Z,11.50
2019-05-03T10:29:25.085Z,11.40
2019-05-03T10:31:32.385Z,11.30
2019-05-03T10:33:48.362Z,11.00
2019-05-03T10:35:54.506Z,10.90
2019-05-03T10:38:00.457Z,11.00
2019-05-03T10:40:08.297Z,10.80
2019-05-03T10:42:14.031Z,10.70
2019-05-03T10:44:20.193Z,10.50
2019-05-03T10:46:25.746Z,10.40
2019-05-03T10:48:32.323Z,10.40
2019-05-03T10:50:37.926Z,10.40
2019-05-03T10:52:45.096Z,10.30
2019-05-03T10:54:50.661Z,10.30
2019-05-03T10:56:57.832Z,10.40
2019-05-03T10:59:06.200Z,10.30
2019-05-03T11:01:12.179Z,10.30
2019-05-03T11:03:17.794Z,10.30
2019-05-03T11:05:23.469Z,10.20
2019-05-03T11:07:29.008Z,10.10
2019-05-03T11:09:48.078Z,10.20
2019-05-03T11:11:45.180Z,10.30
2019-05-03T11:13:50.624Z,10.30
2019-05-03T11:15:56.208Z,10.30
2019-05-03T11:18:01.948Z,10.20
2019-05-03T11:20:07.784Z,10.30
2019-05-03T11:22:14.591Z,10.30
2019-05-03T11:24:23.154Z,10.50
2019-05-03T11:26:27.507Z,10.80
2019-05-03T11:28:35.241Z,10.80
2019-05-03T11:30:52.224Z,10.80
2019-05-03T11:32:55.644Z,10.80
2019-05-03T11:35:05.699Z,10.90
2019-05-03T11:37:29.110Z,10.90
2019-05-03T11:39:34.640Z,10.90
2019-05-03T11:41:41.813Z,10.90
2019-05-03T11:43:47.453Z,10.90
2019-05-03T11:45:55.266Z,10.80
2019-05-03T11:48:00.226Z,10.80
2019-05-03T11:50:07.589Z,10.70
2019-05-03T11:52:15.569Z,10.70
2019-05-03T11:54:20.411Z,10.50
2019-05-03T11:56:26.342Z,10.40
2019-05-03T11:58:31.898Z,10.50
2019-05-03T12:00:39.057Z,10.40
2019-05-03T12:02:49.181Z,10.50
2019-05-03T12:04:55.212Z,10.40
2019-05-03T12:07:00.856Z,10.30
2019-05-03T12:09:07.106Z,10.40
2019-05-03T12:11:15.132Z,10.40
2019-05-03T12:13:30.629Z,10.40
2019-05-03T12:15:36.298Z,10.30
2019-05-03T12:17:51.806Z,10.40
2019-05-03T12:19:52.017Z,10.30
2019-05-03T12:21:58.488Z,10.40
2019-05-03T12:24:06.363Z,10.30
2019-05-03T12:26:13.569Z,10.20
2019-05-03T12:28:19.056Z,10.20
2019-05-03T12:30:27.544Z,10.00
2019-05-03T12:32:31.974Z,9.90
2019-05-03T12:34:37.511Z,9.80
2019-05-03T12:36:43.062Z,9.80
2019-05-03T12:38:48.592Z,9.70
2019-05-03T12:40:54.632Z,9.70
2019-05-03T12:43:00.297Z,9.70
2019-05-03T12:45:06.873Z,9.70
2019-05-03T12:47:14.598Z,9.70
2019-05-03T12:49:20.339Z,9.60
2019-05-03T12:51:25.966Z,9.60
2019-05-03T12:53:31.469Z,9.50
2019-05-03T12:55:37.018Z,9.40
2019-05-03T12:57:42.530Z,9.40
2019-05-03T12:59:55.789Z,9.40
2019-05-03T13:02:08.703Z,9.40
2019-05-03T13:07:09.533Z,9.40
2019-05-03T13:09:16.015Z,9.40
2019-05-03T13:11:21.662Z,9.50
2019-05-03T13:13:27.232Z,9.50
2019-05-03T13:15:32.760Z,9.50
2019-05-03T13:17:38.355Z,9.50
2019-05-03T13:19:45.225Z,9.50
2019-05-03T13:21:50.979Z,9.60
2019-05-03T13:23:56.573Z,9.50
2019-05-03T13:26:05.249Z,9.60
2019-05-03T13:28:10.988Z,9.70
2019-05-03T13:30:17.783Z,9.70
2019-05-03T13:32:23.321Z,9.50
2019-05-03T13:34:28.854Z,9.80
2019-05-03T13:36:34.956Z,9.80
2019-05-03T13:38:40.620Z,10.00
2019-05-03T13:40:46.816Z,10.00
2019-05-03T13:42:57.746Z,10.10
2019-05-03T13:44:59.593Z,10.10
2019-05-03T13:47:05.127Z,10.00
2019-05-03T13:49:10.671Z,10.00
2019-05-03T13:51:16.199Z,10.20
2019-05-03T13:53:21.816Z,10.30
2019-05-03T13:55:27.417Z,10.30
2019-05-03T13:57:35.225Z,10.20
2019-05-03T13:59:41.210Z,10.30
2019-05-03T14:01:46.812Z,10.20
2019-05-03T14:03:54.256Z,10.20
2019-05-03T14:05:59.546Z,10.30
2019-05-03T14:08:05.279Z,10.30
2019-05-03T14:10:11.045Z,10.20
2019-05-03T14:12:16.628Z,10.40
2019-05-03T14:14:22.152Z,10.60
2019-05-03T14:16:27.787Z,10.60
2019-05-03T14:18:35.182Z,10.60
2019-05-03T14:20:58.488Z,10.50
2019-05-03T14:23:05.190Z,10.30
2019-05-03T14:25:11.184Z,10.40
2019-05-03T14:27:17.227Z,10.60
2019-05-03T14:29:22.781Z,10.50
2019-05-03T14:31:28.322Z,10.50
2019-05-03T14:33:35.422Z,10.30
2019-05-03T14:35:41.090Z,10.30
2019-05-03T14:37:46.694Z,10.40
2019-05-03T14:39:54.117Z,10.50
2019-05-03T14:41:59.456Z,10.50
2019-05-03T14:44:05.190Z,10.70
2019-05-03T14:46:10.715Z,10.70
2019-05-03T14:48:16.350Z,10.60
2019-05-03T14:50:21.860Z,10.80
2019-05-03T14:52:28.629Z,10.80
2019-05-03T14:54:37.062Z,10.70
2019-05-03T14:56:50.248Z,10.60
2019-05-03T14:59:14.860Z,10.70
2019-05-03T15:01:24.886Z,10.80
2019-05-03T15:03:30.351Z,10.80
2019-05-03T15:05:35.942Z,10.80
2019-05-03T15:07:41.475Z,10.80
2019-05-03T15:09:47.131Z,10.90
2019-05-03T15:11:54.593Z,10.80
2019-05-03T15:13:59.932Z,10.90
2019-05-03T15:16:05.534Z,10.80
2019-05-03T15:18:11.125Z,10.70
2019-05-03T15:20:16.930Z,10.70
2019-05-03T15:22:22.516Z,10.70
2019-05-03T15:24:28.070Z,10.70
2019-05-03T15:26:35.369Z,10.80
2019-05-03T15:28:41.888Z,10.90
2019-05-03T15:30:47.504Z,10.80
2019-05-03T15:32:57.751Z,10.80
2019-05-03T15:35:00.307Z,10.80
2019-05-03T15:37:05.832Z,10.70
2019-05-03T15:39:11.530Z,10.70
2019-05-03T15:41:17.063Z,10.70
2019-05-03T15:43:34.780Z,10.70
2019-05-03T15:45:58.202Z,10.70
2019-05-03T15:48:18.552Z,10.70
2019-05-03T15:50:25.102Z,10.60
2019-05-03T15:52:30.740Z,10.60
2019-05-03T15:54:36.337Z,10.50
2019-05-03T15:56:41.880Z,10.50
2019-05-03T15:58:47.441Z,10.60
2019-05-03T16:00:55.165Z,10.60
2019-05-03T16:03:08.067Z,10.50
2019-05-03T16:05:07.444Z,10.50
2019-05-03T16:07:14.413Z,10.60
2019-05-03T16:09:19.968Z,10.60
2019-05-03T16:11:25.580Z,10.60
2019-05-03T16:13:32.174Z,10.60
2019-05-03T16:15:38.676Z,10.60
2019-05-03T16:17:44.945Z,10.60
2019-05-03T16:19:50.561Z,10.50
2019-05-03T16:21:56.084Z,10.50
2019-05-03T16:24:01.646Z,10.50
2019-05-03T16:26:08.255Z,10.50
2019-05-03T16:28:21.636Z,10.50
2019-05-03T16:30:47.407Z,10.40
2019-05-03T16:32:54.714Z,10.40
2019-05-03T16:35:00.083Z,10.30
2019-05-03T16:37:05.648Z,10.40
2019-05-03T16:39:11.301Z,10.40
2019-05-03T16:41:18.420Z,10.30
2019-05-03T16:43:25.645Z,10.30
2019-05-03T16:45:31.356Z,10.30
2019-05-03T16:47:36.953Z,10.30
2019-05-03T16:49:42.497Z,10.40
2019-05-03T16:51:48.116Z,10.40
2019-05-03T16:53:55.040Z,10.30
2019-05-03T16:56:03.243Z,10.40
2019-05-03T16:58:07.964Z,10.30
2019-05-03T17:00:15.371Z,10.30
2019-05-03T17:02:21.193Z,10.30
2019-05-03T17:04:31.431Z,10.30
2019-05-03T17:06:41.481Z,10.20
2019-05-03T17:08:56.780Z,10.20
2019-05-03T17:11:09.189Z,10.30
2019-05-03T17:13:14.808Z,10.30
2019-05-03T17:15:20.508Z,10.30
2019-05-03T17:17:26.176Z,10.20
2019-05-03T17:19:31.780Z,10.20
2019-05-03T17:21:37.397Z,10.20
2019-05-03T17:23:44.617Z,10.20
2019-05-03T17:25:51.380Z,10.10
2019-05-03T17:27:56.932Z,10.10
2019-05-03T17:30:04.496Z,10.10
2019-05-03T17:32:11.139Z,10.00
2019-05-03T17:34:16.932Z,9.90
2019-05-03T17:36:24.905Z,10.00
2019-05-03T17:38:30.266Z,10.00
2019-05-03T17:40:40.481Z,10.00
2019-05-03T17:43:05.056Z,10.10
2019-05-03T17:45:10.792Z,10.10
2019-05-03T17:47:16.332Z,10.00
2019-05-03T17:49:21.849Z,9.90
2019-05-03T17:51:37.826Z,9.90
2019-05-03T17:54:00.233Z,9.90
2019-05-03T17:56:10.788Z,9.90
2019-05-03T17:58:20.647Z,9.90
2019-05-03T18:00:46.113Z,9.90
2019-05-03T18:02:52.164Z,9.80
2019-05-03T18:05:15.581Z,9.90
2019-05-03T18:07:30.473Z,9.80
2019-05-03T18:09:37.747Z,9.90
2019-05-03T18:11:48.809Z,9.80
2019-05-03T18:13:55.189Z,9.80
2019-05-03T18:16:00.844Z,9.80
2019-05-03T18:18:06.374Z,9.60
2019-05-03T18:20:12.046Z,9.70
2019-05-03T18:22:17.574Z,9.70
2019-05-03T18:24:24.725Z,9.70
2019-05-03T18:26:31.271Z,9.70
2019-05-03T18:28:37.139Z,9.70
2019-05-03T18:30:42.645Z,9.70
2019-05-03T18:32:48.202Z,9.70
2019-05-03T18:34:54.609Z,9.60
2019-05-03T18:37:00.380Z,9.60
2019-05-03T18:39:08.376Z,9.60
2019-05-03T18:41:14.339Z,9.60
2019-05-03T18:43:21.488Z,9.60
2019-05-03T18:45:45.328Z,9.70
2019-05-03T18:47:50.932Z,9.60
2019-05-03T18:49:56.524Z,9.60
2019-05-03T18:52:02.142Z,9.70
2019-05-03T18:54:07.731Z,9.60
2019-05-03T18:56:14.763Z,9.50
2019-05-03T18:58:20.338Z,9.40
2019-05-03T19:00:26.860Z,9.40
2019-05-03T19:02:32.509Z,9.30
2019-05-03T19:04:39.772Z,9.30
2019-05-03T19:06:45.364Z,9.30
2019-05-03T19:08:54.225Z,9.40
2019-05-03T19:11:04.546Z,9.40
2019-05-03T19:13:18.165Z,9.40
2019-05-03T19:15:25.113Z,9.40
2019-05-03T19:17:38.289Z,9.30
2019-05-03T19:19:45.512Z,9.40
2019-05-03T19:21:51.037Z,9.30
2019-05-03T19:23:56.708Z,9.40
2019-05-03T19:26:02.390Z,9.50
2019-05-03T19:28:08.269Z,9.50
2019-05-03T19:30:14.961Z,9.40
2019-05-03T19:32:20.573Z,9.40
2019-05-03T19:34:26.920Z,9.30
2019-05-03T19:36:34.868Z,9.20
2019-05-03T19:38:39.931Z,9.30
2019-05-03T19:40:45.521Z,9.40
2019-05-03T19:42:51.075Z,9.50
2019-05-03T19:44:56.668Z,9.40
2019-05-03T19:47:02.194Z,9.50
2019-05-03T19:49:07.798Z,9.50
2019-05-03T19:51:14.456Z,9.50
2019-05-03T19:53:21.755Z,9.40
2019-05-03T19:55:27.301Z,9.40
2019-05-03T19:57:34.923Z,9.40
2019-05-03T19:59:49.312Z,9.30
2019-05-03T20:01:56.545Z,9.30
2019-05-03T20:04:09.729Z,9.20
2019-05-03T20:06:25.036Z,9.20
2019-05-03T20:08:37.554Z,9.20
2019-05-03T20:10:44.324Z,9.30
2019-05-03T20:12:49.917Z,9.30
2019-05-03T20:14:55.460Z,9.20
2019-05-03T20:17:03.908Z,9.20
2019-05-03T20:19:18.015Z,9.20
2019-05-03T20:21:59.849Z,9.20
2019-05-03T20:24:16.003Z,9.20
2019-05-03T20:26:21.496Z,9.10
2019-05-03T20:28:27.047Z,9.10
2019-05-03T20:30:34.685Z,9.00
2019-05-03T20:32:39.717Z,9.00
2019-05-03T20:34:45.271Z,9.00
2019-05-03T20:36:50.856Z,9.00
2019-05-03T20:38:56.393Z,9.00
2019-05-03T20:41:01.917Z,8.90
2019-05-03T20:43:09.433Z,8.90
2019-05-03T20:45:19.750Z,9.00
2019-05-03T20:47:27.001Z,9.00
2019-05-03T20:49:34.602Z,8.90
2019-05-03T20:51:39.802Z,8.90
2019-05-03T20:53:45.336Z,8.80
2019-05-03T20:55:50.932Z,8.80
2019-05-03T20:57:56.432Z,8.80
2019-05-03T21:00:02.029Z,8.80
2019-05-03T21:02:07.813Z,8.80
2019-05-03T21:04:15.195Z,8.70
2019-05-03T21:06:32.427Z,8.70
2019-05-03T21:08:27.699Z,8.70
2019-05-03T21:10:34.412Z,8.70
2019-05-03T21:12:39.919Z,8.70
2019-05-03T21:14:45.453Z,8.70
2019-05-03T21:17:07.967Z,8.70
2019-05-03T21:19:35.185Z,8.70
2019-05-03T21:21:42.107Z,8.70
2019-05-03T21:24:05.528Z,8.70
2019-05-03T21:26:13.544Z,8.70
2019-05-03T21:28:18.324Z,8.70
2019-05-03T21:30:24.674Z,8.60
2019-05-03T21:32:30.337Z,8.60
2019-05-03T21:34:35.896Z,8.50
2019-05-03T21:36:41.409Z,8.50
2019-05-03T21:38:46.927Z,8.50
2019-05-03T21:40:54.530Z,8.50
2019-05-03T21:42:59.741Z,8.40
2019-05-03T21:45:07.220Z,8.40
2019-05-03T21:47:15.245Z,8.40
2019-05-03T21:49:25.213Z,8.30
2019-05-03T21:51:30.596Z,8.30
2019-05-03T21:53:38.048Z,8.30
2019-05-03T21:55:44.802Z,8.30
2019-05-03T21:57:50.485Z,8.30
2019-05-03T21:59:56.032Z,8.30
2019-05-03T22:02:01.782Z,8.20
2019-05-03T22:04:07.408Z,8.20
2019-05-03T22:06:13.056Z,8.10
2019-05-03T22:08:18.594Z,8.10
2019-05-03T22:10:25.540Z,8.00
2019-05-03T22:12:31.238Z,7.90
2019-05-03T22:14:38.412Z,7.90
2019-05-03T22:16:45.596Z,7.90
2019-05-03T22:18:51.128Z,7.90
2019-05-03T22:21:13.760Z,7.90
2019-05-03T22:23:20.940Z,7.90
2019-05-03T22:25:28.096Z,7.90
2019-05-03T22:27:37.853Z,7.90
2019-05-03T22:29:44.743Z,7.90
2019-05-03T22:31:50.359Z,8.00
2019-05-03T22:33:55.900Z,8.00
2019-05-03T22:36:08.566Z,7.90
2019-05-03T22:38:08.658Z,7.80
2019-05-03T22:40:14.703Z,7.70
2019-05-03T22:42:20.311Z,7.80
2019-05-03T22:44:25.809Z,7.70
2019-05-03T22:46:32.400Z,7.70
2019-05-03T22:48:37.972Z,7.70
2019-05-03T22:50:44.895Z,7.70
2019-05-03T22:52:50.476Z,7.70
2019-05-03T22:54:56.017Z,7.70
2019-05-03T22:57:01.535Z,7.70
2019-05-03T22:59:07.070Z,7.70
2019-05-03T23:01:16.457Z,7.60
2019-05-03T23:03:19.851Z,7.60
2019-05-03T23:05:26.541Z,7.70
2019-05-03T23:07:34.771Z,7.70
2019-05-03T23:09:39.216Z,7.70
2019-05-03T23:11:44.935Z,7.70
2019-05-03T23:14:04.619Z,7.70
2019-05-03T23:16:09.501Z,7.70
2019-05-03T23:18:15.024Z,7.60
2019-05-03T23:20:40.592Z,7.60
2019-05-03T23:22:46.121Z,7.70
2019-05-03T23:24:51.638Z,7.70
2019-05-03T23:26:57.163Z,7.80
2019-05-03T23:29:04.413Z,7.70
2019-05-03T23:31:09.998Z,7.70
2019-05-03T23:33:15.566Z,7.70
2019-05-03T23:35:21.094Z,7.70
2019-05-03T23:37:26.642Z,7.70
2019-05-03T23:39:32.192Z,7.80
2019-05-03T23:41:37.712Z,7.90
2019-05-03T23:43:44.896Z,7.90
2019-05-03T23:45:50.380Z,7.90
2019-05-03T23:47:55.884Z,7.90
2019-05-03T23:50:01.422Z,7.80
2019-05-03T23:52:26.876Z,7.80
2019-05-03T23:54:32.383Z,7.90
2019-05-03T23:56:37.898Z,7.80
2019-05-03T23:58:44.635Z,7.80
